createdAt,value
2016-11-21T00:00:58.444Z,79.47
2016-11-21T00:01:58.466Z,79.09
2016-11-21T00:02:58.430Z,79.47
2016-11-21T00:03:58.421Z,79.66
2016-11-21T00:04:58.414Z,79.38
2016-11-21T00:05:58.403Z,79.75
2016-11-21T00:06:58.398Z,79.75
2016-11-21T00:07:58.386Z,79.57
2016-11-21T00:08:58.679Z,79.57
2016-11-21T00:09:58.366Z,79.28
2016-11-21T00:10:58.363Z,79.66
2016-11-21T00:11:58.351Z,79.57
2016-11-21T00:12:58.343Z,79.57
2016-11-21T00:13:58.333Z,79.94
2016-11-21T00:14:58.321Z,79.57
2016-11-21T00:15:58.316Z,80.04
2016-11-21T00:16:58.304Z,80.04
2016-11-21T00:17:58.300Z,80.33
2016-11-21T00:18:58.291Z,79.66
2016-11-21T00:19:58.278Z,80.42
2016-11-21T00:20:58.272Z,80.23
2016-11-21T00:21:58.261Z,79.47
2016-11-21T00:22:58.253Z,79.38
2016-11-21T00:23:58.242Z,79.57
2016-11-21T00:24:58.233Z,79.94
2016-11-21T00:25:58.225Z,80.13
2016-11-21T00:26:58.217Z,79.47
2016-11-21T00:27:58.207Z,79.57
2016-11-21T00:28:58.200Z,79.85
2016-11-21T00:29:58.192Z,79.57
2016-11-21T00:30:58.183Z,79.75
2016-11-21T00:31:58.180Z,79.47
2016-11-21T00:32:58.166Z,79.66
2016-11-21T00:33:58.155Z,79.38
2016-11-21T00:34:58.149Z,79.75
2016-11-21T00:35:58.135Z,79.38
2016-11-21T00:36:58.127Z,79.47
2016-11-21T00:37:58.118Z,79.47
2016-11-21T00:38:58.108Z,79.94
2016-11-21T00:39:58.103Z,79.66
2016-11-21T00:40:58.090Z,79.94
2016-11-21T00:41:58.087Z,79.66
2016-11-21T00:42:58.077Z,79.66
2016-11-21T00:43:58.066Z,79.57
2016-11-21T00:44:58.059Z,79.57
2016-11-21T00:45:58.049Z,79.94
2016-11-21T00:46:58.042Z,80.04
2016-11-21T00:47:58.035Z,80.23
2016-11-21T00:48:58.020Z,80.23
2016-11-21T00:49:58.011Z,79.94
2016-11-21T00:50:58.001Z,80.04
2016-11-21T00:51:57.996Z,80.33
2016-11-21T00:52:57.985Z,80.8
2016-11-21T00:53:58.286Z,80.23
2016-11-21T00:54:57.969Z,79.94
2016-11-21T00:55:57.958Z,80.04
2016-11-21T00:56:57.978Z,80.42
2016-11-21T00:57:57.944Z,80.52
2016-11-21T00:58:57.933Z,80.52
2016-11-21T00:59:57.925Z,80.42
2016-11-21T01:00:57.934Z,80.42
2016-11-21T01:01:57.904Z,80.52
2016-11-21T01:02:57.898Z,80.52
2016-11-21T01:03:57.891Z,80.42
2016-11-21T01:04:57.878Z,80.33
2016-11-21T01:05:57.870Z,80.42
2016-11-21T01:06:57.864Z,80.57
2016-11-21T01:07:57.851Z,80.33
2016-11-21T01:08:57.850Z,80.1
2016-11-21T01:09:57.841Z,80.38
2016-11-21T01:10:57.831Z,80.57
2016-11-21T01:11:57.820Z,80.61
2016-11-21T01:12:57.809Z,80.33
2016-11-21T01:13:57.802Z,80.71
2016-11-21T01:14:57.791Z,80.61
2016-11-21T01:15:57.785Z,80.95
2016-11-21T01:16:57.778Z,81.18
2016-11-21T01:17:57.765Z,80.71
2016-11-21T01:18:57.756Z,80.57
2016-11-21T01:19:57.749Z,81.09
2016-11-21T01:20:57.738Z,80.76
2016-11-21T01:21:57.730Z,80.38
2016-11-21T01:22:58.032Z,81.43
2016-11-21T01:23:57.710Z,80.86
2016-11-21T01:24:57.704Z,81.43
2016-11-21T01:25:57.694Z,80.95
2016-11-21T01:26:57.685Z,81.33
2016-11-21T01:27:57.677Z,81.33
2016-11-21T01:28:57.667Z,80.86
2016-11-21T01:29:57.659Z,81.05
2016-11-21T01:30:57.654Z,81.14
2016-11-21T01:31:57.643Z,81.33
2016-11-21T01:32:57.631Z,81.52
2016-11-21T01:33:57.626Z,81.43
2016-11-21T01:34:57.619Z,81.33
2016-11-21T01:35:57.609Z,81.33
2016-11-21T01:36:57.597Z,81.43
2016-11-21T01:37:57.588Z,81.33
2016-11-21T01:38:57.581Z,81.62
2016-11-21T01:39:57.572Z,81.52
2016-11-21T01:40:57.561Z,81.52
2016-11-21T01:41:57.553Z,81.52
2016-11-21T01:42:57.542Z,81.43
2016-11-21T01:43:57.536Z,81.81
2016-11-21T01:44:57.523Z,82.09
2016-11-21T01:45:57.520Z,81.81
2016-11-21T01:46:57.509Z,81.62
2016-11-21T01:47:57.499Z,81.14
2016-11-21T01:48:57.493Z,81.43
2016-11-21T01:49:57.480Z,81.24
2016-11-21T01:50:57.472Z,81.14
2016-11-21T01:51:57.462Z,81.14
2016-11-21T01:52:57.457Z,81.52
2016-11-21T01:53:57.447Z,81.33
2016-11-21T01:54:57.432Z,81.24
2016-11-21T01:55:57.428Z,81.33
2016-11-21T01:56:57.419Z,81.52
2016-11-21T01:57:57.409Z,81.52
2016-11-21T01:58:57.400Z,81.52
2016-11-21T01:59:57.391Z,81.9
2016-11-21T02:00:57.382Z,81.81
2016-11-21T02:01:57.375Z,81.52
2016-11-21T02:02:57.365Z,81.43
2016-11-21T02:03:57.356Z,81.81
2016-11-21T02:04:57.346Z,81.81
2016-11-21T02:05:57.339Z,81.81
2016-11-21T02:06:57.331Z,82
2016-11-21T02:07:57.317Z,82.38
2016-11-21T02:08:57.311Z,82.19
2016-11-21T02:09:57.301Z,81.71
2016-11-21T02:10:57.292Z,82
2016-11-21T02:11:57.281Z,81.81
2016-11-21T02:12:57.275Z,82
2016-11-21T02:13:57.262Z,81.81
2016-11-21T02:14:57.256Z,81.33
2016-11-21T02:15:57.245Z,81.71
2016-11-21T02:16:57.239Z,81.9
2016-11-21T02:17:57.233Z,81.81
2016-11-21T02:18:57.223Z,81.43
2016-11-21T02:19:57.209Z,82.09
2016-11-21T02:20:57.205Z,82.09
2016-11-21T02:21:57.192Z,81.9
2016-11-21T02:22:57.183Z,81.9
2016-11-21T02:23:57.172Z,81.71
2016-11-21T02:24:57.169Z,81.81
2016-11-21T02:25:57.153Z,82
2016-11-21T02:26:57.148Z,82
2016-11-21T02:27:57.137Z,82.28
2016-11-21T02:28:57.131Z,82.57
2016-11-21T02:29:57.122Z,82.38
2016-11-21T02:30:57.110Z,82.86
2016-11-21T02:31:57.101Z,82.86
2016-11-21T02:32:57.096Z,82.57
2016-11-21T02:33:57.083Z,82.57
2016-11-21T02:34:57.075Z,82.95
2016-11-21T02:35:57.067Z,83.14
2016-11-21T02:36:57.059Z,82.86
2016-11-21T02:37:57.044Z,82.67
2016-11-21T02:38:57.039Z,82.86
2016-11-21T02:39:57.030Z,83.33
2016-11-21T02:40:57.014Z,82.76
2016-11-21T02:41:57.012Z,83.14
2016-11-21T02:42:57.003Z,83.33
2016-11-21T02:43:56.997Z,83.33
2016-11-21T02:44:56.980Z,83.33
2016-11-21T02:45:56.974Z,83.81
2016-11-21T02:46:56.964Z,83.14
2016-11-21T02:47:56.953Z,83.62
2016-11-21T02:48:56.942Z,83.81
2016-11-21T02:49:56.934Z,83.95
2016-11-21T02:50:56.928Z,83.42
2016-11-21T02:51:56.925Z,83.9
2016-11-21T02:52:56.913Z,83.86
2016-11-21T02:53:56.903Z,84.14
2016-11-21T02:54:56.890Z,83.76
2016-11-21T02:55:56.880Z,84.14
2016-11-21T02:56:56.878Z,84.14
2016-11-21T02:57:56.864Z,84.14
2016-11-21T02:58:56.855Z,84.38
2016-11-21T02:59:56.844Z,84.52
2016-11-21T03:00:56.839Z,84.72
2016-11-21T03:01:56.826Z,84.52
2016-11-21T03:02:56.819Z,84.33
2016-11-21T03:03:56.806Z,84.14
2016-11-21T03:04:56.796Z,84.14
2016-11-21T03:05:56.791Z,84.72
2016-11-21T03:06:56.780Z,84.81
2016-11-21T03:07:56.771Z,85.19
2016-11-21T03:08:56.759Z,85.1
2016-11-21T03:09:56.757Z,84.72
2016-11-21T03:10:56.741Z,84.81
2016-11-21T03:11:56.734Z,84.72
2016-11-21T03:12:56.728Z,85.1
2016-11-21T03:13:56.711Z,84.91
2016-11-21T03:14:56.706Z,84.81
2016-11-21T03:15:56.697Z,85.28
2016-11-21T03:16:56.688Z,85.28
2016-11-21T03:17:56.677Z,85.28
2016-11-21T03:18:56.667Z,85.19
2016-11-21T03:19:56.654Z,85.19
2016-11-21T03:20:56.646Z,86.05
2016-11-21T03:21:56.636Z,85.57
2016-11-21T03:22:56.631Z,85.76
2016-11-21T03:23:56.621Z,85.66
2016-11-21T03:24:56.608Z,85.47
2016-11-21T03:25:56.597Z,85.47
2016-11-21T03:26:56.589Z,85.66
2016-11-21T03:27:56.582Z,86.14
2016-11-21T03:28:56.576Z,85.86
2016-11-21T03:29:56.562Z,85.95
2016-11-21T03:30:56.554Z,86.43
2016-11-21T03:31:56.543Z,86.33
2016-11-21T03:32:56.537Z,86.8
2016-11-21T03:33:56.523Z,86.76
2016-11-21T03:34:56.519Z,86.76
2016-11-21T03:35:56.503Z,86.57
2016-11-21T03:36:56.496Z,86.76
2016-11-21T03:37:56.487Z,87.14
2016-11-21T03:38:56.475Z,87.24
2016-11-21T03:39:56.464Z,87.52
2016-11-21T03:40:56.456Z,86.95
2016-11-21T03:41:56.446Z,87.34
2016-11-21T03:42:56.435Z,87.52
2016-11-21T03:43:56.430Z,87.52
2016-11-21T03:44:56.417Z,87.81
2016-11-21T03:45:56.409Z,87.62
2016-11-21T03:46:56.397Z,87.43
2016-11-21T03:47:56.389Z,87.71
2016-11-21T03:48:56.377Z,87.62
2016-11-21T03:49:56.373Z,87.43
2016-11-21T03:50:56.359Z,88.09
2016-11-21T03:51:56.348Z,88.09
2016-11-21T03:52:56.341Z,88
2016-11-21T03:53:56.330Z,88.19
2016-11-21T03:54:56.322Z,88.09
2016-11-21T03:55:56.311Z,88.57
2016-11-21T03:56:56.301Z,88.38
2016-11-21T03:57:56.290Z,88.47
2016-11-21T03:58:56.280Z,88.47
2016-11-21T03:59:56.270Z,88.28
2016-11-21T04:00:56.262Z,88.19
2016-11-21T04:01:56.250Z,89.14
2016-11-21T04:02:56.244Z,88.85
2016-11-21T04:03:56.236Z,88.09
2016-11-21T04:04:56.221Z,88.67
2016-11-21T04:05:56.214Z,88.57
2016-11-21T04:06:56.203Z,88.47
2016-11-21T04:07:56.194Z,88.38
2016-11-21T04:08:56.181Z,88.95
2016-11-21T04:09:56.170Z,88.95
2016-11-21T04:10:56.162Z,88.67
2016-11-21T04:11:56.152Z,88.95
2016-11-21T04:12:56.143Z,89.04
2016-11-21T04:13:56.132Z,88.95
2016-11-21T04:14:56.127Z,89.04
2016-11-21T04:15:56.110Z,88.95
2016-11-21T04:16:56.102Z,88.95
2016-11-21T04:17:56.095Z,88.85
2016-11-21T04:18:56.083Z,89.04
2016-11-21T04:19:56.075Z,88.95
2016-11-21T04:20:56.368Z,89.42
2016-11-21T04:21:56.054Z,89.33
2016-11-21T04:22:56.044Z,89.52
2016-11-21T04:23:56.030Z,89.52
2016-11-21T04:24:56.020Z,89.38
2016-11-21T04:25:56.013Z,89.19
2016-11-21T04:26:56.001Z,89.42
2016-11-21T04:27:55.992Z,89.52
2016-11-21T04:28:56.009Z,90.14
2016-11-21T04:29:55.973Z,90.05
2016-11-21T04:30:55.963Z,90.42
2016-11-21T04:31:55.953Z,90.33
2016-11-21T04:32:55.947Z,90.23
2016-11-21T04:33:55.933Z,90.23
2016-11-21T04:34:55.948Z,90.42
2016-11-21T04:35:55.914Z,90.52
2016-11-21T04:36:55.907Z,90.42
2016-11-21T04:37:55.887Z,90.33
2016-11-21T04:38:55.883Z,90.33
2016-11-21T04:39:55.869Z,90.9
2016-11-21T04:40:55.862Z,90.61
2016-11-21T04:41:55.860Z,91.09
2016-11-21T04:42:55.842Z,91.28
2016-11-21T04:43:55.833Z,90.9
2016-11-21T04:44:55.820Z,91.19
2016-11-21T04:45:55.811Z,92.13
2016-11-21T04:46:55.799Z,91.94
2016-11-21T04:47:55.787Z,91.19
2016-11-21T04:48:55.780Z,91.56
2016-11-21T04:49:55.771Z,92.04
2016-11-21T04:50:55.767Z,92.04
2016-11-21T04:51:55.746Z,92.51
2016-11-21T04:52:55.741Z,92.32
2016-11-21T04:53:55.727Z,91.85
2016-11-21T04:54:55.717Z,92.04
2016-11-21T04:55:55.707Z,92.13
2016-11-21T04:56:55.695Z,92.04
2016-11-21T04:57:55.687Z,92.51
2016-11-21T04:58:55.676Z,92.71
2016-11-21T04:59:55.666Z,92.42
2016-11-21T05:00:55.657Z,92.71
2016-11-21T05:01:55.655Z,92.71
2016-11-21T05:02:55.633Z,92.61
2016-11-21T05:03:55.625Z,92.9
2016-11-21T05:04:55.615Z,92.9
2016-11-21T05:05:55.606Z,92.8
2016-11-21T05:06:55.597Z,92.9
2016-11-21T05:07:55.586Z,92.99
2016-11-21T05:08:55.575Z,92.71
2016-11-21T05:09:55.566Z,92.42
2016-11-21T05:10:55.554Z,93.13
2016-11-21T05:11:55.547Z,92.9
2016-11-21T05:12:55.530Z,92.9
2016-11-21T05:13:55.524Z,92.99
2016-11-21T05:14:55.511Z,92.99
2016-11-21T05:15:55.509Z,92.9
2016-11-21T05:16:55.490Z,92.99
2016-11-21T05:17:55.485Z,93.08
2016-11-21T05:18:55.469Z,92.9
2016-11-21T05:19:55.462Z,93.56
2016-11-21T05:20:55.453Z,93.37
2016-11-21T05:21:55.437Z,93.37
2016-11-21T05:22:55.430Z,93.46
2016-11-21T05:23:55.427Z,93.37
2016-11-21T05:24:55.407Z,93.46
2016-11-21T05:25:55.399Z,92.9
2016-11-21T05:26:55.390Z,93.27
2016-11-21T05:27:55.378Z,93.46
2016-11-21T05:28:55.368Z,93.56
2016-11-21T05:29:55.355Z,93.18
2016-11-21T05:30:55.345Z,93.46
2016-11-21T05:31:55.338Z,93.37
2016-11-21T05:32:55.327Z,93.56
2016-11-21T05:33:55.313Z,93.18
2016-11-21T05:34:55.304Z,93.37
2016-11-21T05:35:55.293Z,93.75
2016-11-21T05:36:55.282Z,93.46
2016-11-21T05:37:55.273Z,93.37
2016-11-21T05:38:55.266Z,93.37
2016-11-21T05:39:55.255Z,93.75
2016-11-21T05:40:55.243Z,93.37
2016-11-21T05:41:55.231Z,93.37
2016-11-21T05:42:55.223Z,93.56
2016-11-21T05:43:55.245Z,93.46
2016-11-21T05:44:55.203Z,93.94
2016-11-21T05:45:55.194Z,93.56
2016-11-21T05:46:55.182Z,93.65
2016-11-21T05:47:55.177Z,93.56
2016-11-21T05:48:55.159Z,93.46
2016-11-21T05:49:55.155Z,93.37
2016-11-21T05:50:55.142Z,93.56
2016-11-21T05:51:55.129Z,93.56
2016-11-21T05:52:55.120Z,93.65
2016-11-21T05:53:55.107Z,93.65
2016-11-21T05:54:55.101Z,93.56
2016-11-21T05:55:55.087Z,93.84
2016-11-21T05:56:55.076Z,93.46
2016-11-21T05:57:55.064Z,93.89
2016-11-21T05:58:55.052Z,94.13
2016-11-21T05:59:55.046Z,94.42
2016-11-21T06:00:55.034Z,94.79
2016-11-21T06:01:55.021Z,93.99
2016-11-21T06:02:55.012Z,93.99
2016-11-21T06:03:55.001Z,93.89
2016-11-21T06:04:54.995Z,94.46
2016-11-21T06:05:54.983Z,94.27
2016-11-21T06:06:54.971Z,93.99
2016-11-21T06:07:54.962Z,94.18
2016-11-21T06:08:54.950Z,94.08
2016-11-21T06:09:54.940Z,94.37
2016-11-21T06:10:54.933Z,94.46
2016-11-21T06:11:54.917Z,94.37
2016-11-21T06:12:54.905Z,94.46
2016-11-21T06:13:54.898Z,94.08
2016-11-21T06:14:54.887Z,94.27
2016-11-21T06:15:54.876Z,95.31
2016-11-21T06:16:54.867Z,95.12
2016-11-21T06:17:54.859Z,94.84
2016-11-21T06:18:55.150Z,94.84
2016-11-21T06:19:54.840Z,94.84
2016-11-21T06:20:54.823Z,95.03
2016-11-21T06:21:54.813Z,94.84
2016-11-21T06:22:54.803Z,95.12
2016-11-21T06:23:55.101Z,95.03
2016-11-21T06:24:54.782Z,95.12
2016-11-21T06:25:54.769Z,94.84
2016-11-21T06:26:54.757Z,95.51
2016-11-21T06:27:54.750Z,95.03
2016-11-21T06:28:54.735Z,95.98
2016-11-21T06:29:54.726Z,95.7
2016-11-21T06:30:54.715Z,95.41
2016-11-21T06:31:54.708Z,95.7
2016-11-21T06:32:54.696Z,95.7
2016-11-21T06:33:54.687Z,95.89
2016-11-21T06:34:54.673Z,95.6
2016-11-21T06:35:54.666Z,95.79
2016-11-21T06:36:54.651Z,95.51
2016-11-21T06:37:54.641Z,95.6
2016-11-21T06:38:54.641Z,96.45
2016-11-21T06:39:54.621Z,96.26
2016-11-21T06:40:54.611Z,95.89
2016-11-21T06:41:54.601Z,96.26
2016-11-21T06:42:54.590Z,96.36
2016-11-21T06:43:54.577Z,96.36
2016-11-21T06:44:54.567Z,96.17
2016-11-21T06:45:54.559Z,96.17
2016-11-21T06:46:54.544Z,96.93
2016-11-21T06:47:54.531Z,96.83
2016-11-21T06:48:54.524Z,96.64
2016-11-21T06:49:54.515Z,96.74
2016-11-21T06:50:54.502Z,96.55
2016-11-21T06:51:54.493Z,96.83
2016-11-21T06:52:54.481Z,97.07
2016-11-21T06:53:54.475Z,96.55
2016-11-21T06:54:54.459Z,96.83
2016-11-21T06:55:54.461Z,96.88
2016-11-21T06:56:54.440Z,96.98
2016-11-21T06:57:54.430Z,96.88
2016-11-21T06:58:54.418Z,96.88
2016-11-21T06:59:54.411Z,97.07
2016-11-21T07:00:54.399Z,96.98
2016-11-21T07:01:54.388Z,97.07
2016-11-21T07:02:54.380Z,97.17
2016-11-21T07:03:54.362Z,96.79
2016-11-21T07:04:54.353Z,96.79
2016-11-21T07:05:54.349Z,96.69
2016-11-21T07:06:54.334Z,96.6
2016-11-21T07:07:54.322Z,97.07
2016-11-21T07:08:54.315Z,96.98
2016-11-21T07:09:54.331Z,96.31
2016-11-21T07:10:54.293Z,96.31
2016-11-21T07:11:54.286Z,96.22
2016-11-21T07:12:54.298Z,96.69
2016-11-21T07:13:54.262Z,95.94
2016-11-21T07:14:54.256Z,95.79
2016-11-21T07:15:54.243Z,96.22
2016-11-21T07:16:54.230Z,95.75
2016-11-21T07:17:54.222Z,95.94
2016-11-21T07:18:54.212Z,95.94
2016-11-21T07:19:54.212Z,96.17
2016-11-21T07:20:54.199Z,95.7
2016-11-21T07:21:54.178Z,95.41
2016-11-21T07:22:54.172Z,95.41
2016-11-21T07:23:54.179Z,95.6
2016-11-21T07:24:54.161Z,95.79
2016-11-21T07:25:54.140Z,95.22
2016-11-21T07:26:54.131Z,95.51
2016-11-21T07:27:54.124Z,95.41
2016-11-21T07:28:54.113Z,95.32
2016-11-21T07:29:54.108Z,94.65
2016-11-21T07:30:54.098Z,94.18
2016-11-21T07:31:54.085Z,94.6
2016-11-21T07:32:54.078Z,94.7
2016-11-21T07:33:54.068Z,94.22
2016-11-21T07:34:54.052Z,94.13
2016-11-21T07:35:54.052Z,93.94
2016-11-21T07:36:54.041Z,93.94
2016-11-21T07:37:54.026Z,93.65
2016-11-21T07:38:54.321Z,93.37
2016-11-21T07:39:54.009Z,93.46
2016-11-21T07:40:54.006Z,93.08
2016-11-21T07:41:53.988Z,92.99
2016-11-21T07:42:53.986Z,92.89
2016-11-21T07:43:53.969Z,92.8
2016-11-21T07:44:53.965Z,92.7
2016-11-21T07:45:53.950Z,92.41
2016-11-21T07:46:53.946Z,92.75
2016-11-21T07:47:53.936Z,91.89
2016-11-21T07:48:53.927Z,91.89
2016-11-21T07:49:53.922Z,91.61
2016-11-21T07:50:53.909Z,91.51
2016-11-21T07:51:53.897Z,91.32
2016-11-21T07:52:53.888Z,91.61
2016-11-21T07:53:53.884Z,90.94
2016-11-21T07:54:53.872Z,91.22
2016-11-21T07:55:54.168Z,91.22
2016-11-21T07:56:53.857Z,90.94
2016-11-21T07:57:53.847Z,90.84
2016-11-21T07:58:53.836Z,90.51
2016-11-21T07:59:53.832Z,90.99
2016-11-21T08:00:53.823Z,90.51
2016-11-21T08:01:53.811Z,90.13
2016-11-21T08:02:53.807Z,89.94
2016-11-21T08:03:53.799Z,89.65
2016-11-21T08:04:53.787Z,89.37
2016-11-21T08:05:53.778Z,89.37
2016-11-21T08:06:53.771Z,89.18
2016-11-21T08:08:19.431Z,88.79
2016-11-21T08:08:53.750Z,89.22
2016-11-21T08:09:54.047Z,88.56
2016-11-21T08:10:53.732Z,88.65
2016-11-21T08:11:53.724Z,88.27
2016-11-21T08:12:53.715Z,88.27
2016-11-21T08:13:53.709Z,87.6
2016-11-21T08:14:53.698Z,87.89
2016-11-21T08:15:53.689Z,87.51
2016-11-21T08:16:53.678Z,87.51
2016-11-21T08:17:53.687Z,87.23
2016-11-21T08:18:53.964Z,86.84
2016-11-21T08:19:53.650Z,86.65
2016-11-21T08:20:53.647Z,85.89
2016-11-21T08:21:53.639Z,86.03
2016-11-21T08:22:53.630Z,85.93
2016-11-21T08:23:53.625Z,85.89
2016-11-21T08:24:53.615Z,85.27
2016-11-21T08:25:53.605Z,85.64
2016-11-21T08:26:53.601Z,85.84
2016-11-21T08:27:53.593Z,85.64
2016-11-21T08:28:53.584Z,85.64
2016-11-21T08:29:53.581Z,85.46
2016-11-21T08:30:53.571Z,85.84
2016-11-21T08:31:53.561Z,85.84
2016-11-21T08:32:53.557Z,85.27
2016-11-21T08:33:53.554Z,85.08
2016-11-21T08:34:53.536Z,85.08
2016-11-21T08:35:53.539Z,85.08
2016-11-21T08:36:53.829Z,84.98
2016-11-21T08:37:53.522Z,84.79
2016-11-21T08:38:53.514Z,84.69
2016-11-21T08:39:53.529Z,84.6
2016-11-21T08:40:53.498Z,84.88
2016-11-21T08:41:53.489Z,84.6
2016-11-21T08:42:53.485Z,84.6
2016-11-21T08:43:53.497Z,84.5
2016-11-21T08:44:53.469Z,84.55
2016-11-21T08:45:53.462Z,84.41
2016-11-21T08:46:53.456Z,84.74
2016-11-21T08:47:53.443Z,84.74
2016-11-21T08:48:53.444Z,84.74
2016-11-21T08:49:53.430Z,84.16
2016-11-21T08:50:53.428Z,84.36
2016-11-21T08:51:53.412Z,84.36
2016-11-21T08:52:53.425Z,83.88
2016-11-21T08:53:53.406Z,83.97
2016-11-21T08:54:53.397Z,83.31
2016-11-21T08:55:53.389Z,83.12
2016-11-21T08:56:53.387Z,83.12
2016-11-21T08:57:53.373Z,82.83
2016-11-21T08:58:53.369Z,82.73
2016-11-21T08:59:53.364Z,83.16
2016-11-21T09:00:53.359Z,82.4
2016-11-21T09:01:53.350Z,82.4
2016-11-21T09:02:53.343Z,81.92
2016-11-21T09:03:53.333Z,82.11
2016-11-21T09:04:53.326Z,81.63
2016-11-21T09:05:53.320Z,80.58
2016-11-21T09:06:53.316Z,80.96
2016-11-21T09:07:53.617Z,81.15
2016-11-21T09:08:53.304Z,80.58
2016-11-21T09:09:53.299Z,80.58
2016-11-21T09:10:53.588Z,81.25
2016-11-21T09:11:53.277Z,80.68
2016-11-21T09:12:53.278Z,80.87
2016-11-21T09:13:53.269Z,81.15
2016-11-21T09:14:53.266Z,80.87
2016-11-21T09:15:53.255Z,80.96
2016-11-21T09:16:53.252Z,80.68
2016-11-21T09:17:53.240Z,80.96
2016-11-21T09:18:53.239Z,80.39
2016-11-21T09:19:53.231Z,80.58
2016-11-21T09:20:53.226Z,79.72
2016-11-21T09:21:53.221Z,79.82
2016-11-21T09:22:53.208Z,80.11
2016-11-21T09:23:53.206Z,79.53
2016-11-21T09:24:53.200Z,80.01
2016-11-21T09:25:53.195Z,80.11
2016-11-21T09:26:53.188Z,79.82
2016-11-21T09:27:53.182Z,79.72
2016-11-21T09:28:53.174Z,79.53
2016-11-21T09:29:53.170Z,79.53
2016-11-21T09:30:53.162Z,79.82
2016-11-21T09:31:53.158Z,79.53
2016-11-21T09:32:53.150Z,79.44
2016-11-21T09:33:53.141Z,79.91
2016-11-21T09:34:53.134Z,80.01
2016-11-21T09:35:53.130Z,79.91
2016-11-21T09:36:53.123Z,79.96
2016-11-21T09:37:53.118Z,79.1
2016-11-21T09:38:53.108Z,79.19
2016-11-21T09:39:53.106Z,79.48
2016-11-21T09:40:53.095Z,79.38
2016-11-21T09:41:53.095Z,79.1
2016-11-21T09:42:53.086Z,78.72
2016-11-21T09:43:53.081Z,78.33
2016-11-21T09:44:53.073Z,78.52
2016-11-21T09:45:53.069Z,78.33
2016-11-21T09:46:53.063Z,78.81
2016-11-21T09:47:53.056Z,78.14
2016-11-21T09:48:53.047Z,78.05
2016-11-21T09:49:53.043Z,77.86
2016-11-21T09:50:53.041Z,78.43
2016-11-21T09:51:53.032Z,77.57
2016-11-21T09:52:53.023Z,77.95
2016-11-21T09:53:53.023Z,78.14
2016-11-21T09:54:53.013Z,77.42
2016-11-21T09:55:53.005Z,77.61
2016-11-21T09:56:53.004Z,76.94
2016-11-21T09:57:53.000Z,76.94
2016-11-21T09:58:53.293Z,77.32
2016-11-21T09:59:52.988Z,77.51
2016-11-21T10:00:52.980Z,76.84
2016-11-21T10:01:52.974Z,76.94
2016-11-21T10:02:52.972Z,76.18
2016-11-21T10:03:52.968Z,77.03
2016-11-21T10:04:52.957Z,76.75
2016-11-21T10:05:52.959Z,75.89
2016-11-21T10:06:52.947Z,76.56
2016-11-21T10:07:52.940Z,75.64
2016-11-21T10:08:52.938Z,75.03
2016-11-21T10:09:52.929Z,76.12
2016-11-21T10:10:52.928Z,75.45
2016-11-21T10:11:52.918Z,74.88
2016-11-21T10:12:52.917Z,75.16
2016-11-21T10:13:53.205Z,75.16
2016-11-21T10:14:52.903Z,75.26
2016-11-21T10:15:52.899Z,75.64
2016-11-21T10:16:52.894Z,74.78
2016-11-21T10:17:52.889Z,74.69
2016-11-21T10:18:52.884Z,74.98
2016-11-21T10:19:52.881Z,74.59
2016-11-21T10:20:52.874Z,75.26
2016-11-21T10:21:52.866Z,74.65
2016-11-21T10:22:52.865Z,75.13
2016-11-21T10:23:52.855Z,75.03
2016-11-21T10:24:52.854Z,75.7
2016-11-21T10:25:52.845Z,75.6
2016-11-21T10:26:52.837Z,75.03
2016-11-21T10:27:52.832Z,75.42
2016-11-21T10:28:52.828Z,75.03
2016-11-21T10:30:12.034Z,74.84
2016-11-21T10:30:52.825Z,75.03
2016-11-21T10:31:52.820Z,75.22
2016-11-21T10:32:52.814Z,75.89
2016-11-21T10:33:52.806Z,75.51
2016-11-21T10:34:52.812Z,75.32
2016-11-21T10:35:53.112Z,74.84
2016-11-21T10:36:52.799Z,75.13
2016-11-21T10:37:52.795Z,74.74
2016-11-21T10:38:52.788Z,75.7
2016-11-21T10:39:52.783Z,75.51
2016-11-21T10:40:52.781Z,75.03
2016-11-21T10:41:52.775Z,75.42
2016-11-21T10:42:52.767Z,76.27
2016-11-21T10:43:52.760Z,76.27
2016-11-21T10:44:52.754Z,76.27
2016-11-21T10:45:52.754Z,76.46
2016-11-21T10:46:52.746Z,76.65
2016-11-21T10:47:52.738Z,76.18
2016-11-21T10:48:52.730Z,76.94
2016-11-21T10:49:52.724Z,76.08
2016-11-21T10:50:53.028Z,76.65
2016-11-21T10:51:52.718Z,76.37
2016-11-21T10:52:52.718Z,76.65
2016-11-21T10:53:52.702Z,76.46
2016-11-21T10:54:52.703Z,76.94
2016-11-21T10:55:52.692Z,77.03
2016-11-21T10:56:52.691Z,75.98
2016-11-21T10:57:52.680Z,76.94
2016-11-21T10:58:52.675Z,76.56
2016-11-21T10:59:52.669Z,76.56
2016-11-21T11:00:52.664Z,76.75
2016-11-21T11:01:52.657Z,76.94
2016-11-21T11:02:52.653Z,76.75
2016-11-21T11:03:52.649Z,76.08
2016-11-21T11:04:52.640Z,76.65
2016-11-21T11:05:52.636Z,76.18
2016-11-21T11:06:52.629Z,76.75
2016-11-21T11:07:52.652Z,76.75
2016-11-21T11:08:52.616Z,76.84
2016-11-21T11:09:52.611Z,76.46
2016-11-21T11:10:52.607Z,76.46
2016-11-21T11:11:52.602Z,76.46
2016-11-21T11:12:52.595Z,76.65
2016-11-21T11:13:52.586Z,76.65
2016-11-21T11:14:52.581Z,76.27
2016-11-21T11:15:52.578Z,76.84
2016-11-21T11:16:52.567Z,76.94
2016-11-21T11:17:52.562Z,76.56
2016-11-21T11:18:52.558Z,75.98
2016-11-21T11:19:52.551Z,76.75
2016-11-21T11:20:52.544Z,76.56
2016-11-21T11:21:52.539Z,76.94
2016-11-21T11:22:52.535Z,76.56
2016-11-21T11:23:52.527Z,76.94
2016-11-21T11:24:52.524Z,76.27
2016-11-21T11:25:52.520Z,76.56
2016-11-21T11:26:52.511Z,76.65
2016-11-21T11:27:52.506Z,76.46
2016-11-21T11:28:52.498Z,76.37
2016-11-21T11:29:52.495Z,75.89
2016-11-21T11:30:52.489Z,76.27
2016-11-21T11:31:52.484Z,76.37
2016-11-21T11:32:52.474Z,75.6
2016-11-21T11:33:52.470Z,76.08
2016-11-21T11:34:52.466Z,76.27
2016-11-21T11:35:52.460Z,75.7
2016-11-21T11:37:37.283Z,75.16
2016-11-21T11:37:52.440Z,75.89
2016-11-21T11:38:52.437Z,75.32
2016-11-21T11:39:52.428Z,76.46
2016-11-21T11:40:52.427Z,75.54
2016-11-21T11:41:52.431Z,75.35
2016-11-21T11:42:52.420Z,75.42
2016-11-21T11:43:52.420Z,76.56
2016-11-21T11:44:52.415Z,76.08
2016-11-21T11:45:52.406Z,75.93
2016-11-21T11:46:52.405Z,76.5
2016-11-21T11:47:52.398Z,75.35
2016-11-21T11:48:52.386Z,76.4
2016-11-21T11:49:52.383Z,76.21
2016-11-21T11:50:52.383Z,75.64
2016-11-21T11:51:52.372Z,76.12
2016-11-21T11:52:52.366Z,74.88
2016-11-21T11:53:52.364Z,75.74
2016-11-21T11:54:52.356Z,74.88
2016-11-21T11:55:52.346Z,75.54
2016-11-21T11:56:52.343Z,75.16
2016-11-21T11:57:52.361Z,76.12
2016-11-21T11:58:52.335Z,76.03
2016-11-21T11:59:52.329Z,75.54
2016-11-21T12:00:52.323Z,76.08
2016-11-21T12:01:52.315Z,76.37
2016-11-21T12:02:52.313Z,76.08
2016-11-21T12:03:52.308Z,75.79
2016-11-21T12:04:52.299Z,75.98
2016-11-21T12:05:52.298Z,76.84
2016-11-21T12:06:52.591Z,76.75
2016-11-21T12:07:52.286Z,76.65
2016-11-21T12:08:52.279Z,76.65
2016-11-21T12:09:52.274Z,76.75
2016-11-21T12:10:52.261Z,77.13
2016-11-21T12:11:52.258Z,76.65
2016-11-21T12:12:52.255Z,76.46
2016-11-21T12:13:52.252Z,77.23
2016-11-21T12:14:52.239Z,77.32
2016-11-21T12:15:52.238Z,77.03
2016-11-21T12:16:52.233Z,76.75
2016-11-21T12:17:52.221Z,77.13
2016-11-21T12:18:52.218Z,77.8
2016-11-21T12:19:52.212Z,77.7
2016-11-21T12:20:52.210Z,76.75
2016-11-21T12:21:52.203Z,77.13
2016-11-21T12:22:52.196Z,77.32
2016-11-21T12:23:52.191Z,77.32
2016-11-21T12:24:52.185Z,77.03
2016-11-21T12:25:52.175Z,76.46
2016-11-21T12:26:52.170Z,77.32
2016-11-21T12:27:52.163Z,77.51
2016-11-21T12:28:52.161Z,76.75
2016-11-21T12:29:52.153Z,76.5
2016-11-21T12:30:52.147Z,76.12
2016-11-21T12:31:52.140Z,76.31
2016-11-21T12:32:52.167Z,76.69
2016-11-21T12:33:52.129Z,76.69
2016-11-21T12:34:52.128Z,76.98
2016-11-21T12:35:52.116Z,76.5
2016-11-21T12:36:52.121Z,76.88
2016-11-21T12:37:52.108Z,76.4
2016-11-21T12:38:52.109Z,76.21
2016-11-21T12:39:52.095Z,76.31
2016-11-21T12:40:52.090Z,76.31
2016-11-21T12:41:52.117Z,76.69
2016-11-21T12:42:52.087Z,76.69
2016-11-21T12:43:52.073Z,76.6
2016-11-21T12:44:52.073Z,77.36
2016-11-21T12:45:52.061Z,77.17
2016-11-21T12:46:52.060Z,76.88
2016-11-21T12:47:52.052Z,77.61
2016-11-21T12:48:52.046Z,76.65
2016-11-21T12:49:52.068Z,77.36
2016-11-21T12:50:52.035Z,77.23
2016-11-21T12:51:52.033Z,77.61
2016-11-21T12:52:52.026Z,77.99
2016-11-21T12:53:52.019Z,77.8
2016-11-21T12:54:52.012Z,77.89
2016-11-21T12:55:52.009Z,77.99